Main page
METAR-TAF:

METAR-TAF

Airports :

Madrid-Getafe, Spain

Getafe Air Base

latitude: 40-18N, longitude: 003-43W, elevation: 620 m

Current weather observation

The report was made 47 minutes ago, at 16:00 UTC
Wind 11 kt from the Southwest, varying between South and West
Temperature 33°C
Humidity 17%
Pressure 1015 hPa
Visibility 10 km or more
no clouds below 1500 m and no cumulonimbus

METAR: LEGT 221600Z 22011KT 180V270 CAVOK 33/05 Q1015

Time: 18:47 (16:47 UTC)

Forecast

The report was made 2 hours and 47 minutes ago, at 14:00 UTC
Forecast valid from 22 at 15 UTC to 22 at 24 UTC
Wind 10 kt from the West/Southwest
Visibility 10 km or more
no clouds below 1500 m and no cumulonimbus
Becoming
from 22 at 20 UTC to 22 at 22 UTC
Wind 5 kt from variable directions

TAF: LEGT 221400Z 2215/2224 24010KT CAVOK BECMG 2220/2222 VRB05KT

Weather observations and forecasts of more than 4000 airports (METAR and TAF reports).

The available stations are represented by yellow and red dots on the map.

Hover mouse over dot to see the name of the station.

Then click to see weather observations and forecasts.

To change the map : click on the green buttons with a black cross to zoom in, on the green button with a dash to zoom out, or on the green arrows for adjacent maps.


METAR-TAF: